sensor_id;sensor_type;location;lat;lon;timestamp;P1;durP1;ratioP1;P2;durP2;ratioP2
8199;SDS011;4141;47.880;12.340;2022-09-02T00:02:33;8.13;;;3.53;;
8199;SDS011;4141;47.880;12.340;2022-09-02T00:05:02;5.70;;;3.40;;
8199;SDS011;4141;47.880;12.340;2022-09-02T00:07:30;4.13;;;3.23;;
8199;SDS011;4141;47.880;12.340;2022-09-02T00:09:59;4.10;;;3.70;;
8199;SDS011;4141;47.880;12.340;2022-09-02T00:12:27;6.17;;;3.90;;
8199;SDS011;4141;47.880;12.340;2022-09-02T00:14:56;4.13;;;3.13;;
8199;SDS011;4141;47.880;12.340;2022-09-02T00:17:24;5.27;;;3.20;;
8199;SDS011;4141;47.880;12.340;2022-09-02T00:19:54;3.63;;;3.07;;
8199;SDS011;4141;47.880;12.340;2022-09-02T00:22:23;6.33;;;3.57;;
8199;SDS011;4141;47.880;12.340;2022-09-02T00:24:52;7.87;;;3.50;;
8199;SDS011;4141;47.880;12.340;2022-09-02T00:27:20;7.17;;;3.93;;
8199;SDS011;4141;47.880;12.340;2022-09-02T00:29:48;4.63;;;3.30;;
8199;SDS011;4141;47.880;12.340;2022-09-02T00:32:17;4.87;;;3.20;;
8199;SDS011;4141;47.880;12.340;2022-09-02T00:34:45;5.10;;;3.60;;
8199;SDS011;4141;47.880;12.340;2022-09-02T00:37:15;3.80;;;3.10;;
8199;SDS011;4141;47.880;12.340;2022-09-02T00:39:44;8.03;;;3.30;;
8199;SDS011;4141;47.880;12.340;2022-09-02T00:42:12;6.33;;;2.63;;
8199;SDS011;4141;47.880;12.340;2022-09-02T00:44:40;6.70;;;3.60;;
8199;SDS011;4141;47.880;12.340;2022-09-02T00:47:09;4.90;;;3.77;;
8199;SDS011;4141;47.880;12.340;2022-09-02T00:49:38;3.37;;;3.03;;
8199;SDS011;4141;47.880;12.340;2022-09-02T00:52:08;6.13;;;2.90;;
8199;SDS011;4141;47.880;12.340;2022-09-02T00:54:43;5.37;;;2.83;;
8199;SDS011;4141;47.880;12.340;2022-09-02T00:57:15;5.80;;;3.63;;
8199;SDS011;4141;47.880;12.340;2022-09-02T00:59:49;7.80;;;3.30;;
8199;SDS011;4141;47.880;12.340;2022-09-02T01:02:21;4.43;;;3.03;;
8199;SDS011;4141;47.880;12.340;2022-09-02T01:04:51;4.47;;;3.47;;
8199;SDS011;4141;47.880;12.340;2022-09-02T01:07:22;5.00;;;3.37;;
8199;SDS011;4141;47.880;12.340;2022-09-02T01:09:53;4.40;;;3.63;;
8199;SDS011;4141;47.880;12.340;2022-09-02T01:12:23;4.67;;;3.27;;
8199;SDS011;4141;47.880;12.340;2022-09-02T01:14:53;4.27;;;3.33;;
8199;SDS011;4141;47.880;12.340;2022-09-02T01:17:22;5.50;;;3.30;;
8199;SDS011;4141;47.880;12.340;2022-09-02T01:19:54;4.60;;;3.40;;
8199;SDS011;4141;47.880;12.340;2022-09-02T01:22:25;6.70;;;3.30;;
8199;SDS011;4141;47.880;12.340;2022-09-02T01:24:59;9.67;;;3.83;;
8199;SDS011;4141;47.880;12.340;2022-09-02T01:27:31;14.00;;;3.43;;
8199;SDS011;4141;47.880;12.340;2022-09-02T01:29:59;5.00;;;3.70;;
8199;SDS011;4141;47.880;12.340;2022-09-02T01:32:29;7.57;;;3.73;;
8199;SDS011;4141;47.880;12.340;2022-09-02T01:34:58;5.73;;;3.23;;
8199;SDS011;4141;47.880;12.340;2022-09-02T01:37:28;4.60;;;3.50;;
8199;SDS011;4141;47.880;12.340;2022-09-02T01:39:58;3.70;;;3.13;;
8199;SDS011;4141;47.880;12.340;2022-09-02T01:42:27;4.00;;;3.00;;
8199;SDS011;4141;47.880;12.340;2022-09-02T01:44:55;4.10;;;3.53;;
8199;SDS011;4141;47.880;12.340;2022-09-02T01:47:24;4.40;;;3.57;;
8199;SDS011;4141;47.880;12.340;2022-09-02T01:49:53;4.40;;;3.50;;
8199;SDS011;4141;47.880;12.340;2022-09-02T01:52:22;5.00;;;3.57;;
8199;SDS011;4141;47.880;12.340;2022-09-02T01:54:53;7.50;;;4.03;;
8199;SDS011;4141;47.880;12.340;2022-09-02T01:57:21;7.23;;;3.90;;
8199;SDS011;4141;47.880;12.340;2022-09-02T01:59:51;5.37;;;3.57;;
8199;SDS011;4141;47.880;12.340;2022-09-02T02:02:21;6.53;;;4.03;;
8199;SDS011;4141;47.880;12.340;2022-09-02T02:04:50;4.07;;;3.57;;
8199;SDS011;4141;47.880;12.340;2022-09-02T02:07:19;5.70;;;3.30;;
8199;SDS011;4141;47.880;12.340;2022-09-02T02:09:48;6.30;;;4.10;;
8199;SDS011;4141;47.880;12.340;2022-09-02T02:12:18;5.13;;;3.40;;
8199;SDS011;4141;47.880;12.340;2022-09-02T02:14:47;4.00;;;3.47;;
8199;SDS011;4141;47.880;12.340;2022-09-02T02:17:16;5.70;;;3.87;;
8199;SDS011;4141;47.880;12.340;2022-09-02T02:19:44;6.17;;;4.50;;
8199;SDS011;4141;47.880;12.340;2022-09-02T02:22:13;5.77;;;4.10;;
8199;SDS011;4141;47.880;12.340;2022-09-02T02:24:41;6.47;;;4.30;;
8199;SDS011;4141;47.880;12.340;2022-09-02T02:27:10;7.60;;;4.20;;
8199;SDS011;4141;47.880;12.340;2022-09-02T02:29:39;7.80;;;4.50;;
8199;SDS011;4141;47.880;12.340;2022-09-02T02:32:08;6.30;;;4.23;;
8199;SDS011;4141;47.880;12.340;2022-09-02T02:34:37;11.10;;;4.97;;
8199;SDS011;4141;47.880;12.340;2022-09-02T02:37:06;9.83;;;4.13;;
8199;SDS011;4141;47.880;12.340;2022-09-02T02:39:34;7.63;;;4.20;;
8199;SDS011;4141;47.880;12.340;2022-09-02T02:42:02;5.30;;;4.47;;
8199;SDS011;4141;47.880;12.340;2022-09-02T02:44:31;7.83;;;4.67;;
8199;SDS011;4141;47.880;12.340;2022-09-02T02:47:01;7.27;;;5.30;;
8199;SDS011;4141;47.880;12.340;2022-09-02T02:49:30;4.90;;;4.40;;
8199;SDS011;4141;47.880;12.340;2022-09-02T02:51:58;6.73;;;4.97;;
8199;SDS011;4141;47.880;12.340;2022-09-02T02:54:27;5.40;;;4.43;;
8199;SDS011;4141;47.880;12.340;2022-09-02T02:57:00;5.17;;;4.50;;
8199;SDS011;4141;47.880;12.340;2022-09-02T02:59:30;4.80;;;4.23;;
8199;SDS011;4141;47.880;12.340;2022-09-02T03:01:58;5.90;;;4.70;;
8199;SDS011;4141;47.880;12.340;2022-09-02T03:04:29;8.53;;;4.20;;
8199;SDS011;4141;47.880;12.340;2022-09-02T03:06:57;6.00;;;4.23;;
8199;SDS011;4141;47.880;12.340;2022-09-02T03:09:26;7.70;;;4.60;;
8199;SDS011;4141;47.880;12.340;2022-09-02T03:11:55;5.60;;;4.43;;
8199;SDS011;4141;47.880;12.340;2022-09-02T03:14:23;9.53;;;4.83;;
8199;SDS011;4141;47.880;12.340;2022-09-02T03:16:52;6.43;;;4.90;;
8199;SDS011;4141;47.880;12.340;2022-09-02T03:19:20;5.83;;;4.70;;
8199;SDS011;4141;47.880;12.340;2022-09-02T03:21:50;7.67;;;4.73;;
8199;SDS011;4141;47.880;12.340;2022-09-02T03:24:18;8.63;;;5.17;;
8199;SDS011;4141;47.880;12.340;2022-09-02T03:26:47;7.23;;;4.40;;
8199;SDS011;4141;47.880;12.340;2022-09-02T03:29:15;6.80;;;5.00;;
8199;SDS011;4141;47.880;12.340;2022-09-02T03:31:44;5.40;;;4.33;;
8199;SDS011;4141;47.880;12.340;2022-09-02T03:34:12;7.50;;;5.40;;
8199;SDS011;4141;47.880;12.340;2022-09-02T03:36:41;8.90;;;4.40;;
8199;SDS011;4141;47.880;12.340;2022-09-02T03:39:12;7.80;;;4.90;;
8199;SDS011;4141;47.880;12.340;2022-09-02T03:41:41;4.60;;;4.17;;
8199;SDS011;4141;47.880;12.340;2022-09-02T03:44:10;7.50;;;4.13;;
8199;SDS011;4141;47.880;12.340;2022-09-02T03:46:38;5.70;;;4.30;;
8199;SDS011;4141;47.880;12.340;2022-09-02T03:49:07;4.80;;;4.20;;
8199;SDS011;4141;47.880;12.340;2022-09-02T03:51:38;7.13;;;3.83;;
8199;SDS011;4141;47.880;12.340;2022-09-02T03:54:07;5.80;;;4.00;;
8199;SDS011;4141;47.880;12.340;2022-09-02T03:56:42;7.00;;;5.50;;
8199;SDS011;4141;47.880;12.340;2022-09-02T03:59:11;4.80;;;4.27;;
8199;SDS011;4141;47.880;12.340;2022-09-02T04:01:39;5.03;;;4.33;;
8199;SDS011;4141;47.880;12.340;2022-09-02T04:04:08;8.10;;;5.57;;
8199;SDS011;4141;47.880;12.340;2022-09-02T04:06:36;7.70;;;5.37;;
8199;SDS011;4141;47.880;12.340;2022-09-02T04:09:05;5.90;;;5.07;;
8199;SDS011;4141;47.880;12.340;2022-09-02T04:11:34;11.23;;;6.67;;
8199;SDS011;4141;47.880;12.340;2022-09-02T04:14:04;10.60;;;6.50;;
8199;SDS011;4141;47.880;12.340;2022-09-02T04:23:37;7.20;;;5.77;;
8199;SDS011;4141;47.880;12.340;2022-09-02T04:26:08;7.70;;;5.80;;
8199;SDS011;4141;47.880;12.340;2022-09-02T04:28:38;6.60;;;5.90;;
8199;SDS011;4141;47.880;12.340;2022-09-02T04:31:09;8.10;;;5.90;;
8199;SDS011;4141;47.880;12.340;2022-09-02T04:33:39;7.00;;;5.10;;
8199;SDS011;4141;47.880;12.340;2022-09-02T04:36:09;8.97;;;6.20;;
8199;SDS011;4141;47.880;12.340;2022-09-02T04:38:40;8.53;;;5.63;;
8199;SDS011;4141;47.880;12.340;2022-09-02T04:41:10;7.10;;;5.43;;
8199;SDS011;4141;47.880;12.340;2022-09-02T04:43:39;6.73;;;5.37;;
8199;SDS011;4141;47.880;12.340;2022-09-02T04:46:11;11.80;;;6.17;;
8199;SDS011;4141;47.880;12.340;2022-09-02T04:48:41;8.37;;;5.80;;
8199;SDS011;4141;47.880;12.340;2022-09-02T04:51:11;6.93;;;6.23;;
8199;SDS011;4141;47.880;12.340;2022-09-02T04:53:41;8.27;;;6.00;;
8199;SDS011;4141;47.880;12.340;2022-09-02T04:56:11;8.50;;;5.50;;
8199;SDS011;4141;47.880;12.340;2022-09-02T04:58:40;6.50;;;5.00;;
8199;SDS011;4141;47.880;12.340;2022-09-02T05:01:13;7.07;;;5.00;;
8199;SDS011;4141;47.880;12.340;2022-09-02T05:03:43;7.53;;;5.13;;
8199;SDS011;4141;47.880;12.340;2022-09-02T05:06:14;6.00;;;5.07;;
8199;SDS011;4141;47.880;12.340;2022-09-02T05:08:44;6.63;;;5.40;;
8199;SDS011;4141;47.880;12.340;2022-09-02T05:11:14;5.20;;;4.53;;
8199;SDS011;4141;47.880;12.340;2022-09-02T05:13:45;11.70;;;4.77;;
8199;SDS011;4141;47.880;12.340;2022-09-02T05:16:19;8.20;;;4.70;;
8199;SDS011;4141;47.880;12.340;2022-09-02T05:18:49;5.40;;;4.87;;
8199;SDS011;4141;47.880;12.340;2022-09-02T05:21:18;5.27;;;4.07;;
8199;SDS011;4141;47.880;12.340;2022-09-02T05:23:48;5.43;;;4.13;;
8199;SDS011;4141;47.880;12.340;2022-09-02T05:26:20;6.03;;;4.20;;
8199;SDS011;4141;47.880;12.340;2022-09-02T05:28:48;7.83;;;4.07;;
8199;SDS011;4141;47.880;12.340;2022-09-02T05:31:19;5.43;;;4.23;;
8199;SDS011;4141;47.880;12.340;2022-09-02T05:33:48;6.57;;;4.20;;
8199;SDS011;4141;47.880;12.340;2022-09-02T05:36:17;5.50;;;3.60;;
8199;SDS011;4141;47.880;12.340;2022-09-02T05:38:46;18.17;;;3.93;;
8199;SDS011;4141;47.880;12.340;2022-09-02T05:41:16;3.83;;;3.00;;
8199;SDS011;4141;47.880;12.340;2022-09-02T05:43:49;7.00;;;3.87;;
8199;SDS011;4141;47.880;12.340;2022-09-02T05:46:20;5.90;;;3.17;;
8199;SDS011;4141;47.880;12.340;2022-09-02T05:48:50;6.40;;;3.57;;
8199;SDS011;4141;47.880;12.340;2022-09-02T05:51:38;9.13;;;3.60;;
8199;SDS011;4141;47.880;12.340;2022-09-02T05:54:09;7.07;;;3.70;;
8199;SDS011;4141;47.880;12.340;2022-09-02T05:56:39;6.20;;;3.30;;
8199;SDS011;4141;47.880;12.340;2022-09-02T05:59:11;6.17;;;3.70;;
8199;SDS011;4141;47.880;12.340;2022-09-02T06:01:41;5.43;;;3.80;;
8199;SDS011;4141;47.880;12.340;2022-09-02T06:04:09;4.87;;;3.23;;
8199;SDS011;4141;47.880;12.340;2022-09-02T06:06:38;7.30;;;3.87;;
8199;SDS011;4141;47.880;12.340;2022-09-02T06:09:08;5.87;;;3.23;;
8199;SDS011;4141;47.880;12.340;2022-09-02T06:11:38;4.67;;;3.20;;
8199;SDS011;4141;47.880;12.340;2022-09-02T06:14:10;8.03;;;4.23;;
8199;SDS011;4141;47.880;12.340;2022-09-02T06:16:41;7.47;;;3.00;;
8199;SDS011;4141;47.880;12.340;2022-09-02T06:19:10;6.23;;;3.87;;
8199;SDS011;4141;47.880;12.340;2022-09-02T06:21:45;5.60;;;3.70;;
8199;SDS011;4141;47.880;12.340;2022-09-02T06:24:13;6.30;;;3.40;;
8199;SDS011;4141;47.880;12.340;2022-09-02T06:26:42;8.40;;;3.50;;
8199;SDS011;4141;47.880;12.340;2022-09-02T06:29:10;9.00;;;3.77;;
8199;SDS011;4141;47.880;12.340;2022-09-02T06:31:41;4.37;;;3.63;;
8199;SDS011;4141;47.880;12.340;2022-09-02T06:34:10;7.80;;;3.80;;
8199;SDS011;4141;47.880;12.340;2022-09-02T06:36:41;13.50;;;3.40;;
8199;SDS011;4141;47.880;12.340;2022-09-02T06:39:12;5.13;;;3.67;;
8199;SDS011;4141;47.880;12.340;2022-09-02T06:41:42;6.40;;;3.93;;
8199;SDS011;4141;47.880;12.340;2022-09-02T06:44:13;7.77;;;3.53;;
8199;SDS011;4141;47.880;12.340;2022-09-02T06:46:43;6.20;;;3.70;;
8199;SDS011;4141;47.880;12.340;2022-09-02T06:49:17;4.20;;;2.83;;
8199;SDS011;4141;47.880;12.340;2022-09-02T06:51:46;13.93;;;2.80;;
8199;SDS011;4141;47.880;12.340;2022-09-02T06:54:16;5.70;;;2.60;;
8199;SDS011;4141;47.880;12.340;2022-09-02T06:56:46;6.30;;;2.60;;
8199;SDS011;4141;47.880;12.340;2022-09-02T06:59:15;13.90;;;3.03;;
8199;SDS011;4141;47.880;12.340;2022-09-02T07:01:45;8.37;;;3.10;;
8199;SDS011;4141;47.880;12.340;2022-09-02T07:04:14;5.67;;;3.30;;
8199;SDS011;4141;47.880;12.340;2022-09-02T07:07:02;11.87;;;2.93;;
8199;SDS011;4141;47.880;12.340;2022-09-02T07:09:31;3.30;;;2.40;;
8199;SDS011;4141;47.880;12.340;2022-09-02T07:12:00;3.30;;;2.83;;
8199;SDS011;4141;47.880;12.340;2022-09-02T07:14:31;8.83;;;3.10;;
8199;SDS011;4141;47.880;12.340;2022-09-02T07:17:05;3.00;;;2.50;;
8199;SDS011;4141;47.880;12.340;2022-09-02T07:19:36;5.80;;;3.17;;
8199;SDS011;4141;47.880;12.340;2022-09-02T07:22:04;4.10;;;2.80;;
8199;SDS011;4141;47.880;12.340;2022-09-02T07:24:34;3.77;;;2.77;;
8199;SDS011;4141;47.880;12.340;2022-09-02T07:27:03;6.47;;;2.97;;
8199;SDS011;4141;47.880;12.340;2022-09-02T07:29:32;5.90;;;3.00;;
8199;SDS011;4141;47.880;12.340;2022-09-02T07:32:02;3.37;;;2.60;;
8199;SDS011;4141;47.880;12.340;2022-09-02T07:34:32;4.73;;;2.60;;
8199;SDS011;4141;47.880;12.340;2022-09-02T07:37:00;3.87;;;2.27;;
8199;SDS011;4141;47.880;12.340;2022-09-02T07:39:35;3.93;;;2.37;;
8199;SDS011;4141;47.880;12.340;2022-09-02T07:42:05;2.93;;;2.00;;
8199;SDS011;4141;47.880;12.340;2022-09-02T07:44:33;3.73;;;2.07;;
8199;SDS011;4141;47.880;12.340;2022-09-02T07:47:03;9.10;;;1.60;;
8199;SDS011;4141;47.880;12.340;2022-09-02T07:49:35;6.13;;;2.53;;
8199;SDS011;4141;47.880;12.340;2022-09-02T07:52:23;3.37;;;2.20;;
8199;SDS011;4141;47.880;12.340;2022-09-02T07:54:51;7.03;;;2.30;;
8199;SDS011;4141;47.880;12.340;2022-09-02T07:57:23;8.33;;;1.70;;
8199;SDS011;4141;47.880;12.340;2022-09-02T07:59:57;3.40;;;2.07;;
8199;SDS011;4141;47.880;12.340;2022-09-02T08:02:25;2.63;;;1.57;;
8199;SDS011;4141;47.880;12.340;2022-09-02T08:04:55;3.50;;;2.03;;
8199;SDS011;4141;47.880;12.340;2022-09-02T08:07:23;2.87;;;1.63;;
8199;SDS011;4141;47.880;12.340;2022-09-02T08:09:51;3.10;;;1.67;;
8199;SDS011;4141;47.880;12.340;2022-09-02T08:12:20;6.30;;;1.47;;
8199;SDS011;4141;47.880;12.340;2022-09-02T08:14:48;5.63;;;2.30;;
8199;SDS011;4141;47.880;12.340;2022-09-02T08:17:16;3.40;;;1.80;;
8199;SDS011;4141;47.880;12.340;2022-09-02T08:19:44;2.50;;;1.90;;
8199;SDS011;4141;47.880;12.340;2022-09-02T08:22:14;13.27;;;1.60;;
8199;SDS011;4141;47.880;12.340;2022-09-02T08:24:42;5.27;;;1.90;;
8199;SDS011;4141;47.880;12.340;2022-09-02T08:27:11;2.37;;;2.00;;
8199;SDS011;4141;47.880;12.340;2022-09-02T08:29:39;8.50;;;2.30;;
8199;SDS011;4141;47.880;12.340;2022-09-02T08:32:07;6.40;;;2.23;;
8199;SDS011;4141;47.880;12.340;2022-09-02T08:34:38;5.90;;;2.00;;
8199;SDS011;4141;47.880;12.340;2022-09-02T08:40:27;2.63;;;1.70;;
8199;SDS011;4141;47.880;12.340;2022-09-02T08:42:59;2.80;;;1.90;;
8199;SDS011;4141;47.880;12.340;2022-09-02T08:45:29;2.17;;;1.60;;
8199;SDS011;4141;47.880;12.340;2022-09-02T08:48:01;11.17;;;1.93;;
8199;SDS011;4141;47.880;12.340;2022-09-02T08:50:33;3.93;;;1.90;;
8199;SDS011;4141;47.880;12.340;2022-09-02T08:53:05;2.67;;;1.80;;
8199;SDS011;4141;47.880;12.340;2022-09-02T08:55:45;2.77;;;1.80;;
8199;SDS011;4141;47.880;12.340;2022-09-02T08:58:35;3.83;;;1.90;;
8199;SDS011;4141;47.880;12.340;2022-09-02T09:01:27;4.07;;;2.30;;
8199;SDS011;4141;47.880;12.340;2022-09-02T09:04:10;3.33;;;1.47;;
8199;SDS011;4141;47.880;12.340;2022-09-02T09:09:43;3.87;;;2.00;;
8199;SDS011;4141;47.880;12.340;2022-09-02T09:12:20;3.70;;;2.30;;
8199;SDS011;4141;47.880;12.340;2022-09-02T09:14:57;4.40;;;1.47;;
8199;SDS011;4141;47.880;12.340;2022-09-02T09:17:31;2.87;;;1.87;;
8199;SDS011;4141;47.880;12.340;2022-09-02T09:20:06;4.33;;;1.60;;
8199;SDS011;4141;47.880;12.340;2022-09-02T09:22:38;5.03;;;1.50;;
8199;SDS011;4141;47.880;12.340;2022-09-02T09:25:08;2.63;;;1.90;;
8199;SDS011;4141;47.880;12.340;2022-09-02T09:27:40;4.47;;;1.80;;
8199;SDS011;4141;47.880;12.340;2022-09-02T09:30:11;2.87;;;1.63;;
8199;SDS011;4141;47.880;12.340;2022-09-02T09:32:42;2.40;;;1.50;;
8199;SDS011;4141;47.880;12.340;2022-09-02T09:35:13;3.43;;;1.70;;
8199;SDS011;4141;47.880;12.340;2022-09-02T09:37:43;3.43;;;2.00;;
8199;SDS011;4141;47.880;12.340;2022-09-02T09:40:21;3.20;;;1.80;;
8199;SDS011;4141;47.880;12.340;2022-09-02T09:42:54;5.50;;;1.80;;
8199;SDS011;4141;47.880;12.340;2022-09-02T09:45:28;2.93;;;1.40;;
8199;SDS011;4141;47.880;12.340;2022-09-02T09:48:05;9.10;;;2.63;;
8199;SDS011;4141;47.880;12.340;2022-09-02T09:51:09;2.80;;;1.70;;
8199;SDS011;4141;47.880;12.340;2022-09-02T09:53:41;2.43;;;1.60;;
8199;SDS011;4141;47.880;12.340;2022-09-02T09:56:23;4.73;;;2.20;;
8199;SDS011;4141;47.880;12.340;2022-09-02T09:58:55;2.07;;;1.50;;
8199;SDS011;4141;47.880;12.340;2022-09-02T10:01:24;5.10;;;2.53;;
8199;SDS011;4141;47.880;12.340;2022-09-02T10:03:55;5.13;;;2.20;;
8199;SDS011;4141;47.880;12.340;2022-09-02T10:06:35;8.50;;;2.50;;
8199;SDS011;4141;47.880;12.340;2022-09-02T10:09:06;2.70;;;2.10;;
8199;SDS011;4141;47.880;12.340;2022-09-02T10:11:53;7.70;;;2.60;;
8199;SDS011;4141;47.880;12.340;2022-09-02T10:14:30;4.67;;;2.00;;
8199;SDS011;4141;47.880;12.340;2022-09-02T10:17:14;3.70;;;2.37;;
8199;SDS011;4141;47.880;12.340;2022-09-02T10:19:54;4.37;;;2.40;;
8199;SDS011;4141;47.880;12.340;2022-09-02T10:22:38;9.43;;;2.70;;
8199;SDS011;4141;47.880;12.340;2022-09-02T10:25:27;5.07;;;2.57;;
8199;SDS011;4141;47.880;12.340;2022-09-02T10:27:59;5.43;;;2.20;;
8199;SDS011;4141;47.880;12.340;2022-09-02T10:30:34;3.27;;;2.20;;
8199;SDS011;4141;47.880;12.340;2022-09-02T10:33:14;3.87;;;2.50;;
8199;SDS011;4141;47.880;12.340;2022-09-02T10:35:48;4.50;;;2.37;;
8199;SDS011;4141;47.880;12.340;2022-09-02T10:38:24;2.73;;;2.23;;
8199;SDS011;4141;47.880;12.340;2022-09-02T10:40:58;3.13;;;2.20;;
8199;SDS011;4141;47.880;12.340;2022-09-02T10:43:36;2.97;;;2.13;;
8199;SDS011;4141;47.880;12.340;2022-09-02T10:46:24;3.83;;;2.27;;
8199;SDS011;4141;47.880;12.340;2022-09-02T10:48:55;4.17;;;1.87;;
8199;SDS011;4141;47.880;12.340;2022-09-02T10:51:31;3.20;;;1.63;;
8199;SDS011;4141;47.880;12.340;2022-09-02T10:54:08;1.87;;;1.23;;
8199;SDS011;4141;47.880;12.340;2022-09-02T10:56:42;3.20;;;2.10;;
8199;SDS011;4141;47.880;12.340;2022-09-02T10:59:17;2.17;;;1.50;;
8199;SDS011;4141;47.880;12.340;2022-09-02T11:01:50;3.07;;;1.70;;
8199;SDS011;4141;47.880;12.340;2022-09-02T11:04:23;2.63;;;1.93;;
8199;SDS011;4141;47.880;12.340;2022-09-02T11:07:03;2.10;;;1.60;;
8199;SDS011;4141;47.880;12.340;2022-09-02T11:09:33;3.00;;;1.40;;
8199;SDS011;4141;47.880;12.340;2022-09-02T11:12:06;2.13;;;1.20;;
8199;SDS011;4141;47.880;12.340;2022-09-02T11:14:39;2.57;;;1.40;;
8199;SDS011;4141;47.880;12.340;2022-09-02T11:17:22;2.17;;;1.40;;
8199;SDS011;4141;47.880;12.340;2022-09-02T11:19:54;1.60;;;1.03;;
8199;SDS011;4141;47.880;12.340;2022-09-02T11:22:26;8.87;;;1.90;;
8199;SDS011;4141;47.880;12.340;2022-09-02T11:24:59;3.03;;;1.07;;
8199;SDS011;4141;47.880;12.340;2022-09-02T11:27:32;1.97;;;1.00;;
8199;SDS011;4141;47.880;12.340;2022-09-02T11:30:10;7.63;;;1.20;;
8199;SDS011;4141;47.880;12.340;2022-09-02T11:32:46;1.87;;;1.20;;
8199;SDS011;4141;47.880;12.340;2022-09-02T11:35:18;2.43;;;1.27;;
8199;SDS011;4141;47.880;12.340;2022-09-02T11:37:50;2.47;;;1.20;;
8199;SDS011;4141;47.880;12.340;2022-09-02T11:40:22;1.70;;;1.10;;
8199;SDS011;4141;47.880;12.340;2022-09-02T11:43:03;3.30;;;1.30;;
8199;SDS011;4141;47.880;12.340;2022-09-02T11:52:21;2.70;;;1.00;;
8199;SDS011;4141;47.880;12.340;2022-09-02T11:55:07;2.43;;;1.40;;
8199;SDS011;4141;47.880;12.340;2022-09-02T11:57:38;2.40;;;1.03;;
8199;SDS011;4141;47.880;12.340;2022-09-02T12:00:24;2.97;;;1.03;;
8199;SDS011;4141;47.880;12.340;2022-09-02T12:03:08;2.43;;;1.13;;
8199;SDS011;4141;47.880;12.340;2022-09-02T12:06:07;2.97;;;0.97;;
8199;SDS011;4141;47.880;12.340;2022-09-02T12:11:46;3.67;;;1.00;;
8199;SDS011;4141;47.880;12.340;2022-09-02T12:17:35;2.47;;;1.20;;
8199;SDS011;4141;47.880;12.340;2022-09-02T12:20:08;1.60;;;0.80;;
8199;SDS011;4141;47.880;12.340;2022-09-02T12:22:38;2.10;;;1.00;;
8199;SDS011;4141;47.880;12.340;2022-09-02T12:28:22;5.47;;;1.37;;
8199;SDS011;4141;47.880;12.340;2022-09-02T12:40:30;4.03;;;0.90;;
8199;SDS011;4141;47.880;12.340;2022-09-02T12:43:02;2.40;;;1.47;;
8199;SDS011;4141;47.880;12.340;2022-09-02T12:45:38;2.00;;;0.90;;
8199;SDS011;4141;47.880;12.340;2022-09-02T12:48:10;2.43;;;0.90;;
8199;SDS011;4141;47.880;12.340;2022-09-02T12:50:49;1.60;;;0.80;;
8199;SDS011;4141;47.880;12.340;2022-09-02T12:53:30;3.93;;;1.30;;
8199;SDS011;4141;47.880;12.340;2022-09-02T12:56:01;2.87;;;1.30;;
8199;SDS011;4141;47.880;12.340;2022-09-02T12:58:33;2.80;;;1.33;;
8199;SDS011;4141;47.880;12.340;2022-09-02T13:01:07;2.43;;;1.20;;
8199;SDS011;4141;47.880;12.340;2022-09-02T13:03:49;2.30;;;1.13;;
8199;SDS011;4141;47.880;12.340;2022-09-02T13:06:44;3.97;;;1.30;;
8199;SDS011;4141;47.880;12.340;2022-09-02T13:15:05;1.70;;;0.77;;
8199;SDS011;4141;47.880;12.340;2022-09-02T13:17:58;2.10;;;1.17;;
8199;SDS011;4141;47.880;12.340;2022-09-02T13:23:44;2.37;;;1.10;;
8199;SDS011;4141;47.880;12.340;2022-09-02T13:26:34;2.47;;;1.17;;
8199;SDS011;4141;47.880;12.340;2022-09-02T13:29:41;2.20;;;1.43;;
8199;SDS011;4141;47.880;12.340;2022-09-02T13:32:26;3.10;;;1.30;;
8199;SDS011;4141;47.880;12.340;2022-09-02T13:34:58;2.70;;;1.20;;
8199;SDS011;4141;47.880;12.340;2022-09-02T13:37:33;7.23;;;1.77;;
8199;SDS011;4141;47.880;12.340;2022-09-02T13:40:05;2.93;;;1.17;;
8199;SDS011;4141;47.880;12.340;2022-09-02T13:42:34;2.53;;;0.80;;
8199;SDS011;4141;47.880;12.340;2022-09-02T13:45:09;3.93;;;1.27;;
8199;SDS011;4141;47.880;12.340;2022-09-02T13:47:42;2.23;;;1.00;;
8199;SDS011;4141;47.880;12.340;2022-09-02T13:50:14;1.77;;;0.90;;
8199;SDS011;4141;47.880;12.340;2022-09-02T13:52:46;4.40;;;1.07;;
8199;SDS011;4141;47.880;12.340;2022-09-02T13:55:36;1.60;;;1.03;;
8199;SDS011;4141;47.880;12.340;2022-09-02T13:58:18;4.67;;;1.30;;
8199;SDS011;4141;47.880;12.340;2022-09-02T14:01:15;3.43;;;1.33;;
8199;SDS011;4141;47.880;12.340;2022-09-02T14:03:45;3.87;;;1.10;;
8199;SDS011;4141;47.880;12.340;2022-09-02T14:06:19;2.20;;;0.70;;
8199;SDS011;4141;47.880;12.340;2022-09-02T14:08:49;9.33;;;1.87;;
8199;SDS011;4141;47.880;12.340;2022-09-02T14:11:19;5.80;;;1.10;;
8199;SDS011;4141;47.880;12.340;2022-09-02T14:13:48;5.03;;;1.43;;
8199;SDS011;4141;47.880;12.340;2022-09-02T14:16:22;1.47;;;0.97;;
8199;SDS011;4141;47.880;12.340;2022-09-02T14:19:04;1.73;;;1.10;;
8199;SDS011;4141;47.880;12.340;2022-09-02T14:21:42;1.70;;;1.07;;
8199;SDS011;4141;47.880;12.340;2022-09-02T14:24:12;2.50;;;1.10;;
8199;SDS011;4141;47.880;12.340;2022-09-02T14:26:43;2.77;;;1.10;;
8199;SDS011;4141;47.880;12.340;2022-09-02T14:29:13;2.87;;;1.20;;
8199;SDS011;4141;47.880;12.340;2022-09-02T14:31:43;2.33;;;1.00;;
8199;SDS011;4141;47.880;12.340;2022-09-02T14:34:31;4.20;;;1.10;;
8199;SDS011;4141;47.880;12.340;2022-09-02T14:37:13;2.23;;;1.17;;
8199;SDS011;4141;47.880;12.340;2022-09-02T14:42:44;1.30;;;0.90;;
8199;SDS011;4141;47.880;12.340;2022-09-02T14:45:13;2.90;;;1.00;;
8199;SDS011;4141;47.880;12.340;2022-09-02T14:47:41;2.07;;;1.13;;
8199;SDS011;4141;47.880;12.340;2022-09-02T14:50:09;2.23;;;1.17;;
8199;SDS011;4141;47.880;12.340;2022-09-02T14:52:45;4.47;;;1.40;;
8199;SDS011;4141;47.880;12.340;2022-09-02T14:58:19;1.30;;;0.80;;
8199;SDS011;4141;47.880;12.340;2022-09-02T15:00:53;2.30;;;1.53;;
8199;SDS011;4141;47.880;12.340;2022-09-02T15:03:22;3.03;;;1.07;;
8199;SDS011;4141;47.880;12.340;2022-09-02T15:05:50;3.07;;;1.20;;
8199;SDS011;4141;47.880;12.340;2022-09-02T15:08:20;5.73;;;1.30;;
8199;SDS011;4141;47.880;12.340;2022-09-02T15:10:49;1.73;;;1.00;;
8199;SDS011;4141;47.880;12.340;2022-09-02T15:13:24;3.50;;;1.30;;
8199;SDS011;4141;47.880;12.340;2022-09-02T15:15:54;5.33;;;1.47;;
8199;SDS011;4141;47.880;12.340;2022-09-02T15:18:22;2.33;;;1.00;;
8199;SDS011;4141;47.880;12.340;2022-09-02T15:20:50;3.87;;;1.10;;
8199;SDS011;4141;47.880;12.340;2022-09-02T15:23:21;1.57;;;1.00;;
8199;SDS011;4141;47.880;12.340;2022-09-02T15:25:51;3.23;;;1.40;;
8199;SDS011;4141;47.880;12.340;2022-09-02T15:28:19;2.23;;;1.10;;
8199;SDS011;4141;47.880;12.340;2022-09-02T15:30:55;3.37;;;1.00;;
8199;SDS011;4141;47.880;12.340;2022-09-02T15:33:24;3.97;;;1.10;;
8199;SDS011;4141;47.880;12.340;2022-09-02T15:35:53;1.67;;;1.07;;
8199;SDS011;4141;47.880;12.340;2022-09-02T15:38:22;2.67;;;1.50;;
8199;SDS011;4141;47.880;12.340;2022-09-02T15:40:51;1.83;;;0.90;;
8199;SDS011;4141;47.880;12.340;2022-09-02T15:43:19;2.87;;;1.47;;
8199;SDS011;4141;47.880;12.340;2022-09-02T15:45:48;4.83;;;0.93;;
8199;SDS011;4141;47.880;12.340;2022-09-02T15:48:17;3.97;;;1.30;;
8199;SDS011;4141;47.880;12.340;2022-09-02T15:50:46;3.17;;;1.57;;
8199;SDS011;4141;47.880;12.340;2022-09-02T15:53:19;3.90;;;1.33;;
8199;SDS011;4141;47.880;12.340;2022-09-02T15:55:49;1.63;;;0.87;;
8199;SDS011;4141;47.880;12.340;2022-09-02T15:58:17;3.10;;;1.50;;
8199;SDS011;4141;47.880;12.340;2022-09-02T16:00:45;2.83;;;0.80;;
8199;SDS011;4141;47.880;12.340;2022-09-02T16:03:14;1.70;;;1.27;;
8199;SDS011;4141;47.880;12.340;2022-09-02T16:05:43;1.77;;;1.00;;
8199;SDS011;4141;47.880;12.340;2022-09-02T16:08:11;2.13;;;1.10;;
8199;SDS011;4141;47.880;12.340;2022-09-02T16:10:40;2.17;;;0.90;;
8199;SDS011;4141;47.880;12.340;2022-09-02T16:13:12;2.80;;;1.30;;
8199;SDS011;4141;47.880;12.340;2022-09-02T16:15:40;3.37;;;0.87;;
8199;SDS011;4141;47.880;12.340;2022-09-02T16:18:10;1.57;;;0.90;;
8199;SDS011;4141;47.880;12.340;2022-09-02T16:20:38;2.13;;;1.00;;
8199;SDS011;4141;47.880;12.340;2022-09-02T16:23:06;3.33;;;0.80;;
8199;SDS011;4141;47.880;12.340;2022-09-02T16:25:35;2.70;;;1.00;;